Aerosim Flight Academy

METAR

KSFB 251953Z 11013KT 10SM FEW027 SCT055 OVC100 27/22 A2998 RMK AO2 LTG DSNT SW RAB23E49 SLP151 P0011 T02670222

TAF

TAF KSFB 251734Z 2518/2618 11011KT P6SM VCTS SCT030CB BKN070 BKN250 TEMPO 2518/2520 3SM TSRA BKN030CB FM252100 14010KT P6SM VCSH SCT030 BKN070 BKN120 FM260100 13005KT P6SM FEW025 BKN120 FM261400 12010KT P6SM VCSH SCT025 BKN070 OVC250